sensor_id;sensor_type;location;lat;lon;timestamp;temperature;humidity
71297;SHT31;59082;50.658;4.608;2023-07-31T04:56:08;20.98;94.41
71297;SHT31;59082;50.658;4.608;2023-07-31T04:58:33;21.06;93.93
71297;SHT31;59082;50.658;4.608;2023-07-31T05:00:59;20.83;93.81
71297;SHT31;59082;50.658;4.608;2023-07-31T05:03:24;20.84;94.45
71297;SHT31;59082;50.658;4.608;2023-07-31T05:05:51;20.83;94.28
71297;SHT31;59082;50.658;4.608;2023-07-31T05:08:16;20.47;95.52
71297;SHT31;59082;50.658;4.608;2023-07-31T05:10:43;20.77;94.69
71297;SHT31;59082;50.658;4.608;2023-07-31T05:13:08;20.81;94.56
71297;SHT31;59082;50.658;4.608;2023-07-31T05:15:34;20.74;94.94
71297;SHT31;59082;50.658;4.608;2023-07-31T05:17:59;20.56;95.09
71297;SHT31;59082;50.658;4.608;2023-07-31T05:20:25;20.54;95.50
71297;SHT31;59082;50.658;4.608;2023-07-31T05:22:50;20.74;95.28
71297;SHT31;59082;50.658;4.608;2023-07-31T05:25:16;20.29;95.75
71297;SHT31;59082;50.658;4.608;2023-07-31T05:27:42;20.65;95.22
71297;SHT31;59082;50.658;4.608;2023-07-31T05:30:07;20.85;95.19
71297;SHT31;59082;50.658;4.608;2023-07-31T05:32:33;20.60;95.67
71297;SHT31;59082;50.658;4.608;2023-07-31T05:34:58;20.17;96.30
71297;SHT31;59082;50.658;4.608;2023-07-31T05:37:24;19.93;96.26
71297;SHT31;59082;50.658;4.608;2023-07-31T05:39:49;20.02;96.49
71297;SHT31;59082;50.658;4.608;2023-07-31T05:42:16;20.44;96.40
71297;SHT31;59082;50.658;4.608;2023-07-31T05:44:41;20.43;96.10
71297;SHT31;59082;50.658;4.608;2023-07-31T05:47:07;20.44;95.68
71297;SHT31;59082;50.658;4.608;2023-07-31T05:49:32;20.53;96.15
71297;SHT31;59082;50.658;4.608;2023-07-31T05:51:57;20.43;95.98
71297;SHT31;59082;50.658;4.608;2023-07-31T05:54:23;20.54;96.01
71297;SHT31;59082;50.658;4.608;2023-07-31T05:56:48;20.68;96.11
71297;SHT31;59082;50.658;4.608;2023-07-31T05:59:14;20.56;95.66
71297;SHT31;59082;50.658;4.608;2023-07-31T06:01:39;20.53;95.50
71297;SHT31;59082;50.658;4.608;2023-07-31T06:04:05;20.51;95.83
71297;SHT31;59082;50.658;4.608;2023-07-31T06:06:31;19.93;96.24
71297;SHT31;59082;50.658;4.608;2023-07-31T06:08:56;20.48;95.92
71297;SHT31;59082;50.658;4.608;2023-07-31T06:11:22;20.63;95.94
71297;SHT31;59082;50.658;4.608;2023-07-31T06:13:48;20.65;95.92
71297;SHT31;59082;50.658;4.608;2023-07-31T06:16:15;20.71;96.01
71297;SHT31;59082;50.658;4.608;2023-07-31T06:18:41;20.29;96.04
71297;SHT31;59082;50.658;4.608;2023-07-31T06:21:07;20.43;96.07
71297;SHT31;59082;50.658;4.608;2023-07-31T06:23:33;20.27;95.97
71297;SHT31;59082;50.658;4.608;2023-07-31T06:25:59;20.48;95.66
71297;SHT31;59082;50.658;4.608;2023-07-31T06:28:28;20.61;95.49
71297;SHT31;59082;50.658;4.608;2023-07-31T06:30:58;20.73;95.41
71297;SHT31;59082;50.658;4.608;2023-07-31T06:33:24;20.40;95.14
71297;SHT31;59082;50.658;4.608;2023-07-31T06:35:50;20.51;95.78
71297;SHT31;59082;50.658;4.608;2023-07-31T06:38:19;20.48;95.38
71297;SHT31;59082;50.658;4.608;2023-07-31T06:40:45;20.47;95.30
71297;SHT31;59082;50.658;4.608;2023-07-31T06:43:10;20.75;95.00
71297;SHT31;59082;50.658;4.608;2023-07-31T06:45:37;20.91;94.01
71297;SHT31;59082;50.658;4.608;2023-07-31T06:48:03;21.32;94.38
71297;SHT31;59082;50.658;4.608;2023-07-31T06:50:30;21.36;94.12
71297;SHT31;59082;50.658;4.608;2023-07-31T06:52:56;21.39;93.93
71297;SHT31;59082;50.658;4.608;2023-07-31T06:55:22;21.15;93.49
71297;SHT31;59082;50.658;4.608;2023-07-31T06:57:49;21.25;93.91
71297;SHT31;59082;50.658;4.608;2023-07-31T07:00:16;21.15;94.00
71297;SHT31;59082;50.658;4.608;2023-07-31T07:02:41;20.65;93.73
71297;SHT31;59082;50.658;4.608;2023-07-31T07:05:07;21.13;93.66
71297;SHT31;59082;50.658;4.608;2023-07-31T07:07:33;21.05;93.86
71297;SHT31;59082;50.658;4.608;2023-07-31T07:09:59;21.39;93.25
71297;SHT31;59082;50.658;4.608;2023-07-31T07:12:25;21.50;92.50
71297;SHT31;59082;50.658;4.608;2023-07-31T07:14:51;20.61;92.84
71297;SHT31;59082;50.658;4.608;2023-07-31T07:17:18;21.57;92.61
71297;SHT31;59082;50.658;4.608;2023-07-31T07:19:44;21.45;92.67
71297;SHT31;59082;50.658;4.608;2023-07-31T07:22:11;21.60;92.64
71297;SHT31;59082;50.658;4.608;2023-07-31T07:24:37;21.53;93.14
71297;SHT31;59082;50.658;4.608;2023-07-31T07:27:03;21.40;93.10
71297;SHT31;59082;50.658;4.608;2023-07-31T07:29:28;20.39;93.36
71297;SHT31;59082;50.658;4.608;2023-07-31T07:31:54;20.92;93.65
71297;SHT31;59082;50.658;4.608;2023-07-31T07:34:22;20.67;92.76
71297;SHT31;59082;50.658;4.608;2023-07-31T07:36:48;21.22;93.24
71297;SHT31;59082;50.658;4.608;2023-07-31T07:39:14;21.16;92.44
71297;SHT31;59082;50.658;4.608;2023-07-31T07:41:40;21.21;92.49
71297;SHT31;59082;50.658;4.608;2023-07-31T07:44:06;21.21;92.50
71297;SHT31;59082;50.658;4.608;2023-07-31T07:46:31;21.38;92.58
71297;SHT31;59082;50.658;4.608;2023-07-31T07:48:56;21.57;92.15
71297;SHT31;59082;50.658;4.608;2023-07-31T07:51:22;21.08;92.27
71297;SHT31;59082;50.658;4.608;2023-07-31T07:53:47;20.75;92.88
71297;SHT31;59082;50.658;4.608;2023-07-31T07:56:13;21.22;92.80
71297;SHT31;59082;50.658;4.608;2023-07-31T07:58:38;21.21;93.43
71297;SHT31;59082;50.658;4.608;2023-07-31T08:01:04;20.98;93.63
71297;SHT31;59082;50.658;4.608;2023-07-31T08:03:29;21.19;93.05
71297;SHT31;59082;50.658;4.608;2023-07-31T08:06:01;21.11;92.76
71297;SHT31;59082;50.658;4.608;2023-07-31T08:08:28;21.45;92.58
71297;SHT31;59082;50.658;4.608;2023-07-31T08:10:53;21.57;92.67
71297;SHT31;59082;50.658;4.608;2023-07-31T08:13:18;21.67;92.12
71297;SHT31;59082;50.658;4.608;2023-07-31T08:15:44;21.51;92.47
71297;SHT31;59082;50.658;4.608;2023-07-31T08:18:10;21.64;92.08
71297;SHT31;59082;50.658;4.608;2023-07-31T08:20:37;21.87;91.80
71297;SHT31;59082;50.658;4.608;2023-07-31T08:23:02;21.19;92.32
71297;SHT31;59082;50.658;4.608;2023-07-31T08:25:28;21.60;93.25
71297;SHT31;59082;50.658;4.608;2023-07-31T08:27:54;21.81;93.59
71297;SHT31;59082;50.658;4.608;2023-07-31T08:30:19;21.69;92.11
71297;SHT31;59082;50.658;4.608;2023-07-31T08:32:45;21.90;92.28
71297;SHT31;59082;50.658;4.608;2023-07-31T08:35:10;22.22;92.53
71297;SHT31;59082;50.658;4.608;2023-07-31T08:37:38;21.67;92.76
71297;SHT31;59082;50.658;4.608;2023-07-31T08:40:04;21.28;93.04
71297;SHT31;59082;50.658;4.608;2023-07-31T08:42:30;21.36;93.02
71297;SHT31;59082;50.658;4.608;2023-07-31T08:44:56;21.93;92.58
71297;SHT31;59082;50.658;4.608;2023-07-31T08:47:22;22.07;92.50
71297;SHT31;59082;50.658;4.608;2023-07-31T08:49:48;22.26;92.11
71297;SHT31;59082;50.658;4.608;2023-07-31T08:52:14;21.94;92.16
71297;SHT31;59082;50.658;4.608;2023-07-31T08:54:40;21.74;93.00
71297;SHT31;59082;50.658;4.608;2023-07-31T08:57:06;21.54;93.45
71297;SHT31;59082;50.658;4.608;2023-07-31T08:59:34;21.78;93.23
71297;SHT31;59082;50.658;4.608;2023-07-31T09:02:05;21.67;92.32
71297;SHT31;59082;50.658;4.608;2023-07-31T09:04:31;21.29;92.39
71297;SHT31;59082;50.658;4.608;2023-07-31T09:07:00;22.12;92.34
71297;SHT31;59082;50.658;4.608;2023-07-31T09:09:26;21.70;92.01
71297;SHT31;59082;50.658;4.608;2023-07-31T09:11:52;22.08;91.75
71297;SHT31;59082;50.658;4.608;2023-07-31T09:14:18;22.11;92.05
71297;SHT31;59082;50.658;4.608;2023-07-31T09:16:52;22.51;91.79
71297;SHT31;59082;50.658;4.608;2023-07-31T09:19:25;22.49;91.49
71297;SHT31;59082;50.658;4.608;2023-07-31T09:21:51;22.24;91.45
71297;SHT31;59082;50.658;4.608;2023-07-31T09:24:29;22.76;91.40
71297;SHT31;59082;50.658;4.608;2023-07-31T09:26:56;22.62;91.22
71297;SHT31;59082;50.658;4.608;2023-07-31T09:29:22;22.72;90.77
71297;SHT31;59082;50.658;4.608;2023-07-31T09:31:48;23.15;90.85
71297;SHT31;59082;50.658;4.608;2023-07-31T09:34:14;22.62;90.47
71297;SHT31;59082;50.658;4.608;2023-07-31T09:36:47;22.60;90.87
71297;SHT31;59082;50.658;4.608;2023-07-31T09:39:14;22.70;91.36
71297;SHT31;59082;50.658;4.608;2023-07-31T09:41:47;22.87;91.18
71297;SHT31;59082;50.658;4.608;2023-07-31T09:44:13;22.79;91.19
71297;SHT31;59082;50.658;4.608;2023-07-31T09:46:39;23.20;90.28
71297;SHT31;59082;50.658;4.608;2023-07-31T09:49:09;23.44;90.18
71297;SHT31;59082;50.658;4.608;2023-07-31T09:51:36;23.45;89.97
71297;SHT31;59082;50.658;4.608;2023-07-31T09:56:41;22.69;90.31
71297;SHT31;59082;50.658;4.608;2023-07-31T09:59:07;22.73;91.01
71297;SHT31;59082;50.658;4.608;2023-07-31T10:01:36;22.64;90.00
71297;SHT31;59082;50.658;4.608;2023-07-31T10:04:01;22.96;90.45
71297;SHT31;59082;50.658;4.608;2023-07-31T10:06:28;23.63;89.62
71297;SHT31;59082;50.658;4.608;2023-07-31T10:08:54;23.96;89.05
71297;SHT31;59082;50.658;4.608;2023-07-31T10:11:21;24.25;88.40
71297;SHT31;59082;50.658;4.608;2023-07-31T10:13:47;24.10;88.66
71297;SHT31;59082;50.658;4.608;2023-07-31T10:16:14;23.49;89.07
71297;SHT31;59082;50.658;4.608;2023-07-31T10:18:42;22.86;90.08
71297;SHT31;59082;50.658;4.608;2023-07-31T10:21:09;23.15;89.93
71297;SHT31;59082;50.658;4.608;2023-07-31T10:23:34;23.52;89.79
71297;SHT31;59082;50.658;4.608;2023-07-31T10:26:01;23.62;89.09
71297;SHT31;59082;50.658;4.608;2023-07-31T10:28:29;24.02;88.65
71297;SHT31;59082;50.658;4.608;2023-07-31T10:30:55;24.04;88.44
71297;SHT31;59082;50.658;4.608;2023-07-31T10:33:21;23.73;90.28
71297;SHT31;59082;50.658;4.608;2023-07-31T10:35:47;23.34;89.26
71297;SHT31;59082;50.658;4.608;2023-07-31T10:38:13;23.59;89.69
71297;SHT31;59082;50.658;4.608;2023-07-31T10:40:39;23.87;89.45
71297;SHT31;59082;50.658;4.608;2023-07-31T10:43:06;23.62;89.38
71297;SHT31;59082;50.658;4.608;2023-07-31T10:45:44;23.28;88.97
71297;SHT31;59082;50.658;4.608;2023-07-31T10:48:16;24.00;88.88
71297;SHT31;59082;50.658;4.608;2023-07-31T10:50:54;23.79;89.11
71297;SHT31;59082;50.658;4.608;2023-07-31T10:53:31;23.30;89.08
71297;SHT31;59082;50.658;4.608;2023-07-31T10:56:00;23.42;89.06
71297;SHT31;59082;50.658;4.608;2023-07-31T10:58:26;24.00;88.85
71297;SHT31;59082;50.658;4.608;2023-07-31T11:00:56;25.30;87.38
71297;SHT31;59082;50.658;4.608;2023-07-31T11:03:25;25.36;86.99
71297;SHT31;59082;50.658;4.608;2023-07-31T11:05:52;25.16;86.25
71297;SHT31;59082;50.658;4.608;2023-07-31T11:08:28;24.95;87.23
71297;SHT31;59082;50.658;4.608;2023-07-31T11:15:57;24.51;87.58
71297;SHT31;59082;50.658;4.608;2023-07-31T11:18:25;24.24;87.17
71297;SHT31;59082;50.658;4.608;2023-07-31T11:20:51;24.38;88.35
71297;SHT31;59082;50.658;4.608;2023-07-31T11:23:17;24.52;88.03
71297;SHT31;59082;50.658;4.608;2023-07-31T11:25:43;24.47;88.60
71297;SHT31;59082;50.658;4.608;2023-07-31T11:28:11;23.86;88.56
71297;SHT31;59082;50.658;4.608;2023-07-31T11:30:37;23.51;89.12
71297;SHT31;59082;50.658;4.608;2023-07-31T11:33:05;24.13;88.95
71297;SHT31;59082;50.658;4.608;2023-07-31T11:35:32;23.97;88.37
71297;SHT31;59082;50.658;4.608;2023-07-31T11:37:57;24.24;88.59
71297;SHT31;59082;50.658;4.608;2023-07-31T11:40:23;23.76;88.79
71297;SHT31;59082;50.658;4.608;2023-07-31T11:42:56;24.14;88.78
71297;SHT31;59082;50.658;4.608;2023-07-31T11:45:25;23.49;88.81
71297;SHT31;59082;50.658;4.608;2023-07-31T11:47:54;24.17;88.58
71297;SHT31;59082;50.658;4.608;2023-07-31T11:50:19;24.50;88.37
71297;SHT31;59082;50.658;4.608;2023-07-31T11:52:46;24.27;87.97
71297;SHT31;59082;50.658;4.608;2023-07-31T11:55:13;24.17;87.08
71297;SHT31;59082;50.658;4.608;2023-07-31T11:57:41;24.23;87.91
71297;SHT31;59082;50.658;4.608;2023-07-31T12:00:09;24.20;87.74
71297;SHT31;59082;50.658;4.608;2023-07-31T12:02:36;24.64;87.50
71297;SHT31;59082;50.658;4.608;2023-07-31T12:05:05;24.98;86.86
71297;SHT31;59082;50.658;4.608;2023-07-31T12:07:51;25.05;87.03
71297;SHT31;59082;50.658;4.608;2023-07-31T12:10:30;25.17;87.36
71297;SHT31;59082;50.658;4.608;2023-07-31T12:13:02;25.40;86.92
71297;SHT31;59082;50.658;4.608;2023-07-31T12:15:34;25.26;87.26
71297;SHT31;59082;50.658;4.608;2023-07-31T12:18:14;25.26;86.98
71297;SHT31;59082;50.658;4.608;2023-07-31T12:20:49;24.92;87.42
71297;SHT31;59082;50.658;4.608;2023-07-31T12:23:15;25.20;87.44
71297;SHT31;59082;50.658;4.608;2023-07-31T12:25:42;24.81;87.90
71297;SHT31;59082;50.658;4.608;2023-07-31T12:28:07;24.07;88.00
71297;SHT31;59082;50.658;4.608;2023-07-31T12:30:38;23.99;88.29
71297;SHT31;59082;50.658;4.608;2023-07-31T12:33:21;23.04;88.81
71297;SHT31;59082;50.658;4.608;2023-07-31T12:35:47;23.20;89.20
71297;SHT31;59082;50.658;4.608;2023-07-31T12:38:13;23.54;89.31
71297;SHT31;59082;50.658;4.608;2023-07-31T12:40:40;23.86;89.75
71297;SHT31;59082;50.658;4.608;2023-07-31T12:43:06;24.23;88.82
71297;SHT31;59082;50.658;4.608;2023-07-31T12:45:32;23.76;90.29
71297;SHT31;59082;50.658;4.608;2023-07-31T12:47:58;23.11;90.86
71297;SHT31;59082;50.658;4.608;2023-07-31T12:50:24;23.83;90.95
71297;SHT31;59082;50.658;4.608;2023-07-31T12:52:51;23.63;90.51
71297;SHT31;59082;50.658;4.608;2023-07-31T12:55:17;24.30;89.45
71297;SHT31;59082;50.658;4.608;2023-07-31T12:57:43;24.96;88.25
71297;SHT31;59082;50.658;4.608;2023-07-31T13:00:09;25.43;88.56
71297;SHT31;59082;50.658;4.608;2023-07-31T13:02:35;26.25;85.53
71297;SHT31;59082;50.658;4.608;2023-07-31T13:05:00;26.12;86.05
71297;SHT31;59082;50.658;4.608;2023-07-31T13:07:26;25.56;86.80
71297;SHT31;59082;50.658;4.608;2023-07-31T13:09:52;24.85;87.78
71297;SHT31;59082;50.658;4.608;2023-07-31T13:12:17;25.28;88.06
71297;SHT31;59082;50.658;4.608;2023-07-31T13:14:43;24.57;88.52
71297;SHT31;59082;50.658;4.608;2023-07-31T13:17:08;24.81;87.94
71297;SHT31;59082;50.658;4.608;2023-07-31T13:19:34;24.35;88.92
71297;SHT31;59082;50.658;4.608;2023-07-31T13:21:59;24.62;88.81
71297;SHT31;59082;50.658;4.608;2023-07-31T13:24:25;24.00;89.58
71297;SHT31;59082;50.658;4.608;2023-07-31T13:26:50;23.86;89.59
71297;SHT31;59082;50.658;4.608;2023-07-31T13:29:16;23.51;90.63
71297;SHT31;59082;50.658;4.608;2023-07-31T13:31:41;23.52;91.00
71297;SHT31;59082;50.658;4.608;2023-07-31T13:34:07;23.22;92.72
71297;SHT31;59082;50.658;4.608;2023-07-31T13:36:32;22.60;92.53
71297;SHT31;59082;50.658;4.608;2023-07-31T13:38:59;22.94;92.80
71297;SHT31;59082;50.658;4.608;2023-07-31T13:41:25;21.93;95.03
71297;SHT31;59082;50.658;4.608;2023-07-31T13:43:50;22.53;95.12
71297;SHT31;59082;50.658;4.608;2023-07-31T13:46:16;30.88;99.99
71297;SHT31;59082;50.658;4.608;2023-07-31T13:48:41;57.46;82.91
71297;SHT31;59082;50.658;4.608;2023-07-31T13:51:07;28.04;82.34
71297;SHT31;59082;50.658;4.608;2023-07-31T13:53:32;26.67;86.34
71297;SHT31;59082;50.658;4.608;2023-07-31T13:55:58;25.75;88.46
71297;SHT31;59082;50.658;4.608;2023-07-31T13:58:23;26.59;90.28
71297;SHT31;59082;50.658;4.608;2023-07-31T14:00:49;26.51;87.46
71297;SHT31;59082;50.658;4.608;2023-07-31T14:03:14;26.02;89.22
71297;SHT31;59082;50.658;4.608;2023-07-31T14:05:40;24.60;92.75
71297;SHT31;59082;50.658;4.608;2023-07-31T14:08:05;24.20;92.84
71297;SHT31;59082;50.658;4.608;2023-07-31T14:10:31;24.57;91.40
71297;SHT31;59082;50.658;4.608;2023-07-31T14:12:56;24.37;91.25
71297;SHT31;59082;50.658;4.608;2023-07-31T14:15:22;24.14;91.08
71297;SHT31;59082;50.658;4.608;2023-07-31T14:17:47;24.41;92.05
71297;SHT31;59082;50.658;4.608;2023-07-31T14:20:13;24.37;92.13
71297;SHT31;59082;50.658;4.608;2023-07-31T14:22:38;24.07;92.16
71297;SHT31;59082;50.658;4.608;2023-07-31T14:25:04;24.38;92.32
71297;SHT31;59082;50.658;4.608;2023-07-31T14:27:30;24.37;92.33
71297;SHT31;59082;50.658;4.608;2023-07-31T14:29:55;24.03;92.10
71297;SHT31;59082;50.658;4.608;2023-07-31T14:32:22;24.13;92.07
71297;SHT31;59082;50.658;4.608;2023-07-31T14:34:49;24.27;93.32
71297;SHT31;59082;50.658;4.608;2023-07-31T14:37:14;24.55;92.42
71297;SHT31;59082;50.658;4.608;2023-07-31T14:39:39;24.44;92.39
71297;SHT31;59082;50.658;4.608;2023-07-31T14:42:05;24.68;92.76
71297;SHT31;59082;50.658;4.608;2023-07-31T14:44:32;24.37;92.69
71297;SHT31;59082;50.658;4.608;2023-07-31T14:46:57;24.23;92.31
71297;SHT31;59082;50.658;4.608;2023-07-31T14:49:23;24.20;93.35
71297;SHT31;59082;50.658;4.608;2023-07-31T14:51:49;23.51;92.73
71297;SHT31;59082;50.658;4.608;2023-07-31T14:54:14;24.18;93.58
71297;SHT31;59082;50.658;4.608;2023-07-31T14:56:40;24.02;93.25
71297;SHT31;59082;50.658;4.608;2023-07-31T14:59:05;24.21;93.91
71297;SHT31;59082;50.658;4.608;2023-07-31T15:01:33;23.82;93.62
71297;SHT31;59082;50.658;4.608;2023-07-31T15:03:59;23.32;93.80
71297;SHT31;59082;50.658;4.608;2023-07-31T15:06:25;23.54;93.35
71297;SHT31;59082;50.658;4.608;2023-07-31T15:08:50;23.42;93.50
71297;SHT31;59082;50.658;4.608;2023-07-31T15:11:16;24.67;92.57
71297;SHT31;59082;50.658;4.608;2023-07-31T15:13:41;23.89;93.42
71297;SHT31;59082;50.658;4.608;2023-07-31T15:16:07;23.95;93.79
71297;SHT31;59082;50.658;4.608;2023-07-31T15:18:33;23.62;94.02
71297;SHT31;59082;50.658;4.608;2023-07-31T15:20:58;23.77;94.04
71297;SHT31;59082;50.658;4.608;2023-07-31T15:23:24;23.49;93.79
71297;SHT31;59082;50.658;4.608;2023-07-31T15:25:51;23.48;94.30
71297;SHT31;59082;50.658;4.608;2023-07-31T15:28:18;23.15;95.05
71297;SHT31;59082;50.658;4.608;2023-07-31T15:30:43;22.69;94.98
71297;SHT31;59082;50.658;4.608;2023-07-31T15:33:21;23.08;95.71
71297;SHT31;59082;50.658;4.608;2023-07-31T15:35:47;22.66;96.56
71297;SHT31;59082;50.658;4.608;2023-07-31T15:38:12;29.23;83.26
71297;SHT31;59082;50.658;4.608;2023-07-31T15:40:38;25.86;99.99
71297;SHT31;59082;50.658;4.608;2023-07-31T15:43:04;24.83;94.21
71297;SHT31;59082;50.658;4.608;2023-07-31T15:45:29;24.68;93.66
71297;SHT31;59082;50.658;4.608;2023-07-31T15:47:55;25.60;94.07
71297;SHT31;59082;50.658;4.608;2023-07-31T15:50:21;25.47;91.72
71297;SHT31;59082;50.658;4.608;2023-07-31T15:52:46;24.78;91.75
71297;SHT31;59082;50.658;4.608;2023-07-31T15:55:12;25.16;92.99
71297;SHT31;59082;50.658;4.608;2023-07-31T15:57:38;25.22;92.95
71297;SHT31;59082;50.658;4.608;2023-07-31T16:00:03;25.02;93.16
71297;SHT31;59082;50.658;4.608;2023-07-31T16:02:29;24.43;92.28
71297;SHT31;59082;50.658;4.608;2023-07-31T16:04:55;25.08;92.30
71297;SHT31;59082;50.658;4.608;2023-07-31T16:07:20;24.76;92.16
71297;SHT31;59082;50.658;4.608;2023-07-31T16:09:46;24.85;91.83
71297;SHT31;59082;50.658;4.608;2023-07-31T16:12:12;24.73;91.82
71297;SHT31;59082;50.658;4.608;2023-07-31T16:14:38;24.69;92.41
71297;SHT31;59082;50.658;4.608;2023-07-31T16:17:04;24.83;91.18
71297;SHT31;59082;50.658;4.608;2023-07-31T16:19:29;24.14;96.59
71297;SHT31;59082;50.658;4.608;2023-07-31T16:21:55;23.56;93.19
71297;SHT31;59082;50.658;4.608;2023-07-31T16:24:20;23.38;92.82
71297;SHT31;59082;50.658;4.608;2023-07-31T16:26:46;24.00;93.04
71297;SHT31;59082;50.658;4.608;2023-07-31T16:29:11;23.76;93.07
71297;SHT31;59082;50.658;4.608;2023-07-31T16:31:37;24.09;93.41
71297;SHT31;59082;50.658;4.608;2023-07-31T16:34:03;24.40;94.23
71297;SHT31;59082;50.658;4.608;2023-07-31T16:36:28;24.18;94.06
71297;SHT31;59082;50.658;4.608;2023-07-31T16:38:54;24.45;94.63
71297;SHT31;59082;50.658;4.608;2023-07-31T16:41:20;23.77;95.31
71297;SHT31;59082;50.658;4.608;2023-07-31T16:43:47;23.87;94.46
71297;SHT31;59082;50.658;4.608;2023-07-31T16:46:12;24.25;94.21
71297;SHT31;59082;50.658;4.608;2023-07-31T16:48:38;23.89;93.94
71297;SHT31;59082;50.658;4.608;2023-07-31T16:51:03;23.97;94.56
71297;SHT31;59082;50.658;4.608;2023-07-31T16:53:30;23.85;94.40
71297;SHT31;59082;50.658;4.608;2023-07-31T16:55:55;23.49;95.17
71297;SHT31;59082;50.658;4.608;2023-07-31T16:58:23;23.47;95.30
71297;SHT31;59082;50.658;4.608;2023-07-31T17:00:50;23.69;94.82
71297;SHT31;59082;50.658;4.608;2023-07-31T17:03:16;23.45;94.61
71297;SHT31;59082;50.658;4.608;2023-07-31T17:05:42;23.04;94.54
71297;SHT31;59082;50.658;4.608;2023-07-31T17:08:07;23.70;95.22
71297;SHT31;59082;50.658;4.608;2023-07-31T17:10:33;23.04;95.54
71297;SHT31;59082;50.658;4.608;2023-07-31T17:12:58;23.95;94.46
71297;SHT31;59082;50.658;4.608;2023-07-31T17:15:24;23.99;93.86
71297;SHT31;59082;50.658;4.608;2023-07-31T17:17:52;22.99;94.47
71297;SHT31;59082;50.658;4.608;2023-07-31T17:20:19;23.07;95.12
71297;SHT31;59082;50.658;4.608;2023-07-31T17:22:44;22.86;96.03
71297;SHT31;59082;50.658;4.608;2023-07-31T17:25:10;22.72;95.43
71297;SHT31;59082;50.658;4.608;2023-07-31T17:27:35;22.87;95.81
71297;SHT31;59082;50.658;4.608;2023-07-31T17:30:08;22.93;95.63
71297;SHT31;59082;50.658;4.608;2023-07-31T17:32:34;23.04;95.88
71297;SHT31;59082;50.658;4.608;2023-07-31T17:35:00;23.20;96.47
71297;SHT31;59082;50.658;4.608;2023-07-31T17:37:25;22.56;96.54
71297;SHT31;59082;50.658;4.608;2023-07-31T17:39:51;22.05;97.68
71297;SHT31;59082;50.658;4.608;2023-07-31T17:42:16;22.60;97.54
71297;SHT31;59082;50.658;4.608;2023-07-31T17:44:42;22.96;96.79
71297;SHT31;59082;50.658;4.608;2023-07-31T17:47:07;22.87;96.35
71297;SHT31;59082;50.658;4.608;2023-07-31T17:49:33;22.86;96.20
71297;SHT31;59082;50.658;4.608;2023-07-31T17:51:58;22.76;96.56
71297;SHT31;59082;50.658;4.608;2023-07-31T17:54:27;22.07;98.56
71297;SHT31;59082;50.658;4.608;2023-07-31T17:56:53;23.18;98.24
71297;SHT31;59082;50.658;4.608;2023-07-31T17:59:18;23.22;96.46
71297;SHT31;59082;50.658;4.608;2023-07-31T18:01:44;23.12;96.86
71297;SHT31;59082;50.658;4.608;2023-07-31T18:04:30;22.76;96.55
71297;SHT31;59082;50.658;4.608;2023-07-31T18:07:03;23.31;99.99
71297;SHT31;59082;50.658;4.608;2023-07-31T18:09:29;27.04;99.99
71297;SHT31;59082;50.658;4.608;2023-07-31T18:11:54;31.44;85.28
71297;SHT31;59082;50.658;4.608;2023-07-31T18:14:20;26.86;83.83
71297;SHT31;59082;50.658;4.608;2023-07-31T18:16:49;25.15;86.44
71297;SHT31;59082;50.658;4.608;2023-07-31T18:19:15;24.06;87.22
71297;SHT31;59082;50.658;4.608;2023-07-31T18:21:40;23.83;99.99
71297;SHT31;59082;50.658;4.608;2023-07-31T18:24:06;24.37;92.92
71297;SHT31;59082;50.658;4.608;2023-07-31T18:26:32;23.63;94.05
71297;SHT31;59082;50.658;4.608;2023-07-31T18:28:57;24.10;93.32
71297;SHT31;59082;50.658;4.608;2023-07-31T18:31:23;23.87;93.82
71297;SHT31;59082;50.658;4.608;2023-07-31T18:33:48;23.86;92.94
71297;SHT31;59082;50.658;4.608;2023-07-31T18:36:14;23.85;93.75
71297;SHT31;59082;50.658;4.608;2023-07-31T18:38:39;23.51;94.74
71297;SHT31;59082;50.658;4.608;2023-07-31T18:41:05;23.48;94.90
71297;SHT31;59082;50.658;4.608;2023-07-31T18:43:32;23.38;93.91
71297;SHT31;59082;50.658;4.608;2023-07-31T18:45:57;23.35;94.27
71297;SHT31;59082;50.658;4.608;2023-07-31T18:48:23;22.99;94.21
71297;SHT31;59082;50.658;4.608;2023-07-31T18:50:51;23.63;95.35
71297;SHT31;59082;50.658;4.608;2023-07-31T18:53:21;24.03;94.05
71297;SHT31;59082;50.658;4.608;2023-07-31T18:55:48;23.97;94.95
71297;SHT31;59082;50.658;4.608;2023-07-31T18:58:15;23.93;94.40
71297;SHT31;59082;50.658;4.608;2023-07-31T19:00:40;23.58;94.29
71297;SHT31;59082;50.658;4.608;2023-07-31T19:03:06;23.20;93.91
71297;SHT31;59082;50.658;4.608;2023-07-31T19:05:31;23.31;94.42
71297;SHT31;59082;50.658;4.608;2023-07-31T19:07:57;23.56;95.15
71297;SHT31;59082;50.658;4.608;2023-07-31T19:10:29;23.56;94.84
71297;SHT31;59082;50.658;4.608;2023-07-31T19:12:54;23.42;95.49
71297;SHT31;59082;50.658;4.608;2023-07-31T19:15:20;23.03;93.99
71297;SHT31;59082;50.658;4.608;2023-07-31T19:17:45;23.00;94.12
71297;SHT31;59082;50.658;4.608;2023-07-31T19:20:12;23.25;94.76
71297;SHT31;59082;50.658;4.608;2023-07-31T19:22:39;22.99;95.28
71297;SHT31;59082;50.658;4.608;2023-07-31T19:25:05;23.15;95.51
71297;SHT31;59082;50.658;4.608;2023-07-31T19:27:31;23.27;94.81
71297;SHT31;59082;50.658;4.608;2023-07-31T19:29:56;22.87;94.63
71297;SHT31;59082;50.658;4.608;2023-07-31T19:32:23;23.12;94.66
71297;SHT31;59082;50.658;4.608;2023-07-31T19:34:49;23.11;94.67
71297;SHT31;59082;50.658;4.608;2023-07-31T19:37:14;22.82;95.10
71297;SHT31;59082;50.658;4.608;2023-07-31T19:39:39;22.97;95.29
71297;SHT31;59082;50.658;4.608;2023-07-31T19:42:05;23.38;95.98
71297;SHT31;59082;50.658;4.608;2023-07-31T19:44:30;22.79;95.00
71297;SHT31;59082;50.658;4.608;2023-07-31T19:46:56;23.01;95.79
71297;SHT31;59082;50.658;4.608;2023-07-31T19:49:21;22.93;95.98
71297;SHT31;59082;50.658;4.608;2023-07-31T19:51:47;23.03;95.27
71297;SHT31;59082;50.658;4.608;2023-07-31T19:54:14;23.15;95.91
71297;SHT31;59082;50.658;4.608;2023-07-31T19:56:41;23.18;95.75
71297;SHT31;59082;50.658;4.608;2023-07-31T19:59:07;22.79;96.13
71297;SHT31;59082;50.658;4.608;2023-07-31T20:01:32;23.42;96.20
71297;SHT31;59082;50.658;4.608;2023-07-31T20:03:58;22.59;94.93
71297;SHT31;59082;50.658;4.608;2023-07-31T20:06:23;22.39;96.26
71297;SHT31;59082;50.658;4.608;2023-07-31T20:08:49;22.79;97.09
71297;SHT31;59082;50.658;4.608;2023-07-31T20:11:15;22.94;96.33
71297;SHT31;59082;50.658;4.608;2023-07-31T20:13:41;23.24;96.45
71297;SHT31;59082;50.658;4.608;2023-07-31T20:16:07;23.07;97.97
71297;SHT31;59082;50.658;4.608;2023-07-31T20:18:33;28.76;89.80
71297;SHT31;59082;50.658;4.608;2023-07-31T20:20:59;31.34;89.10
71297;SHT31;59082;50.658;4.608;2023-07-31T20:23:31;29.85;91.92
71297;SHT31;59082;50.658;4.608;2023-07-31T20:25:57;31.03;90.82
71297;SHT31;59082;50.658;4.608;2023-07-31T20:28:22;33.59;86.12